Time;durP1;ratioP1;P1;durP2;ratioP2;P2;SDS_P1;SDS_P2;PMS_P1;PMS_P2;Temp;Humidity;BMP_temperature;BMP_pressure;BME280_temperature;BME280_humidity;BME280_pressure;Samples;Min_cycle;Max_cycle;Signal;HPM_P1;HPM_P2
2023/05/15 00:00:03;;;;;;;25.73;22.48;;;14.40;99.90;;;;;;5030890;28;20025;-84
2023/05/15 00:02:28;;;;;;;29.25;20.77;;;14.40;99.90;;;;;;5031566;28;20025;-84
2023/05/15 00:04:54;;;;;;;24.38;21.45;;;14.40;99.90;;;;;;5031148;28;20029;-83
2023/05/15 00:07:19;;;;;;;29.30;22.75;;;14.20;99.90;;;;;;5031355;28;20041;-84
2023/05/15 00:09:45;;;;;;;27.58;23.10;;;14.40;99.90;;;;;;5031278;28;20021;-84
2023/05/15 00:12:11;;;;;;;32.30;23.52;;;14.40;99.90;;;;;;5030871;28;20151;-84
2023/05/15 00:14:36;;;;;;;31.35;24.15;;;14.40;99.90;;;;;;5030961;28;20044;-85
2023/05/15 00:17:02;;;;;;;28.95;24.38;;;14.30;99.90;;;;;;5031701;28;20036;-84
2023/05/15 00:19:27;;;;;;;26.13;22.63;;;14.40;99.90;;;;;;5030990;28;20021;-84
2023/05/15 00:21:54;;;;;;;29.50;25.40;;;14.40;99.90;;;;;;5030986;28;20033;-84
2023/05/15 00:24:21;;;;;;;33.40;25.10;;;14.30;99.90;;;;;;5031419;28;20115;-83
2023/05/15 00:26:46;;;;;;;31.45;24.88;;;14.30;99.90;;;;;;5030401;28;20082;-84
2023/05/15 00:29:12;;;;;;;33.15;24.85;;;14.30;99.90;;;;;;5031463;28;20026;-84
2023/05/15 00:31:37;;;;;;;32.25;24.42;;;14.30;99.90;;;;;;5031221;28;20025;-84
2023/05/15 00:34:03;;;;;;;33.10;24.85;;;14.30;99.90;;;;;;5030663;28;20411;-84
2023/05/15 00:36:28;;;;;;;31.75;24.42;;;14.30;99.90;;;;;;5031399;28;20112;-84
2023/05/15 00:38:54;;;;;;;30.90;25.08;;;14.40;99.90;;;;;;5030885;28;20032;-84
2023/05/15 00:41:21;;;;;;;33.25;25.35;;;14.30;99.90;;;;;;5030411;28;20047;-84
2023/05/15 00:43:50;;;;;;;38.03;26.23;;;14.30;99.90;;;;;;5030732;28;20128;-84
2023/05/15 00:46:16;;;;;;;29.08;24.17;;;14.30;99.90;;;;;;5031228;28;20078;-84
2023/05/15 00:48:42;;;;;;;28.80;24.20;;;14.30;99.90;;;;;;5029777;28;20465;-84
2023/05/15 00:51:09;;;;;;;28.45;24.90;;;14.30;99.90;;;;;;5031033;28;20064;-84
2023/05/15 00:53:34;;;;;;;34.58;25.23;;;14.30;99.90;;;;;;5030563;28;20032;-84
2023/05/15 00:56:04;;;;;;;31.23;24.35;;;14.30;99.90;;;;;;5030415;28;20021;-84
2023/05/15 00:58:30;;;;;;;32.10;25.00;;;14.30;99.90;;;;;;5031014;28;20049;-84
2023/05/15 01:00:56;;;;;;;31.23;25.35;;;14.30;99.90;;;;;;5030176;28;20069;-84
2023/05/15 01:03:22;;;;;;;27.50;24.15;;;14.30;99.90;;;;;;5029925;28;20053;-84
2023/05/15 01:05:48;;;;;;;29.83;24.25;;;14.30;99.90;;;;;;5030404;28;20025;-84
2023/05/15 01:08:22;;;;;;;30.02;23.35;;;14.30;99.90;;;;;;5030368;28;20030;-84
2023/05/15 01:10:49;;;;;;;23.70;21.17;;;14.30;99.90;;;;;;5030265;28;20354;-84
2023/05/15 01:13:14;;;;;;;24.67;19.80;;;14.20;99.90;;;;;;5030879;28;20030;-83
2023/05/15 01:15:40;;;;;;;20.75;18.58;;;14.20;99.90;;;;;;5029825;28;20033;-84
2023/05/15 01:18:06;;;;;;;20.42;18.23;;;14.20;99.90;;;;;;5030387;28;20488;-83
2023/05/15 01:20:47;;;;;;;23.00;17.73;;;14.20;99.90;;;;;;5030286;28;20025;-84
2023/05/15 01:23:37;;;;;;;18.15;16.13;;;14.20;99.90;;;;;;5030035;28;20117;-84
2023/05/15 01:26:29;;;;;;;18.27;16.10;;;14.10;99.90;;;;;;5030692;28;20109;-84
2023/05/15 01:29:03;;;;;;;19.75;15.98;;;14.10;99.90;;;;;;5029891;28;20045;-83
2023/05/15 01:31:32;;;;;;;21.15;16.30;;;14.00;99.90;;;;;;5029988;28;20025;-84
2023/05/15 01:34:05;;;;;;;17.02;15.38;;;14.00;99.90;;;;;;5030084;28;20488;-84
2023/05/15 01:36:37;;;;;;;21.67;15.98;;;14.00;99.90;;;;;;5029821;28;20065;-84
2023/05/15 01:39:04;;;;;;;16.30;14.68;;;14.00;99.90;;;;;;5030614;28;20029;-84
2023/05/15 01:41:45;;;;;;;23.27;14.70;;;14.00;99.90;;;;;;5030382;28;20029;-84
2023/05/15 01:44:15;;;;;;;;;;;14.00;99.90;;;;;;5029676;28;20053;-84
2023/05/15 01:46:48;;;;;;;17.70;15.48;;;13.90;99.90;;;;;;5029881;28;19905;-83
2023/05/15 01:49:18;;;;;;;18.67;15.48;;;13.90;99.90;;;;;;5030272;28;20153;-84
2023/05/15 01:51:47;;;;;;;18.65;14.45;;;13.90;99.90;;;;;;5028971;28;20044;-84
2023/05/15 01:54:14;;;;;;;20.38;16.08;;;13.80;99.90;;;;;;5030007;28;20029;-84
2023/05/15 01:56:43;;;;;;;18.38;15.73;;;13.80;99.90;;;;;;5029483;28;20034;-84
2023/05/15 01:59:14;;;;;;;18.05;15.55;;;13.80;99.90;;;;;;5029451;28;20033;-84
2023/05/15 02:01:40;;;;;;;22.08;16.15;;;13.80;99.90;;;;;;5029929;28;20040;-84
2023/05/15 02:04:07;;;;;;;16.77;15.05;;;13.80;99.90;;;;;;5029859;28;20033;-84
2023/05/15 02:06:33;;;;;;;15.73;14.23;;;13.80;99.90;;;;;;5028988;28;20029;-84
2023/05/15 02:09:02;;;;;;;18.23;15.75;;;13.80;99.90;;;;;;5029727;28;20492;-84
2023/05/15 02:11:27;;;;;;;17.75;15.95;;;13.80;99.90;;;;;;5030037;28;20048;-84
2023/05/15 02:13:56;;;;;;;17.55;15.60;;;13.80;99.90;;;;;;5028791;28;20465;-84
2023/05/15 02:16:22;;;;;;;17.83;16.15;;;13.80;99.90;;;;;;5029618;28;20022;-84
2023/05/15 02:18:48;;;;;;;20.40;16.80;;;13.80;99.90;;;;;;5028703;28;20025;-84
2023/05/15 02:21:14;;;;;;;22.50;16.55;;;13.70;99.90;;;;;;5029555;28;20025;-84
2023/05/15 02:23:40;;;;;;;18.73;16.77;;;13.70;99.90;;;;;;5029186;28;20508;-84
2023/05/15 02:26:28;;;;;;;21.63;16.90;;;13.70;99.90;;;;;;5029103;28;20040;-83
2023/05/15 02:29:20;;;;;;;18.15;16.27;;;13.80;99.90;;;;;;5029442;28;20113;-84
2023/05/15 02:32:04;;;;;;;18.75;16.75;;;13.80;99.90;;;;;;5029572;28;20071;-84
2023/05/15 02:35:00;;;;;;;22.20;18.30;;;13.80;99.90;;;;;;5028831;28;20021;-84
2023/05/15 02:37:33;;;;;;;19.60;17.63;;;13.80;99.90;;;;;;5029652;28;20025;-84
2023/05/15 02:39:59;;;;;;;20.30;18.02;;;13.80;99.90;;;;;;5028829;28;20033;-84
2023/05/15 02:42:26;;;;;;;20.55;18.40;;;13.70;99.90;;;;;;5029184;28;20109;-83
2023/05/15 02:44:54;;;;;;;21.48;18.60;;;13.80;99.90;;;;;;5028808;28;20055;-84
2023/05/15 02:47:21;;;;;;;20.75;17.98;;;13.80;99.90;;;;;;5028403;28;20037;-83
2023/05/15 02:49:47;;;;;;;22.88;18.92;;;13.80;99.90;;;;;;5029096;28;20117;-83
2023/05/15 02:52:13;;;;;;;20.83;18.83;;;13.80;99.90;;;;;;5029221;28;20144;-84
2023/05/15 02:54:39;;;;;;;22.05;19.13;;;13.80;99.90;;;;;;5028337;28;20032;-83
2023/05/15 02:57:06;;;;;;;21.30;18.95;;;13.70;99.90;;;;;;5029411;28;20026;-84
2023/05/15 02:59:32;;;;;;;26.00;20.55;;;13.80;99.90;;;;;;5029213;28;20098;-84
2023/05/15 03:01:58;;;;;;;22.02;19.67;;;13.70;99.90;;;;;;5028531;28;20426;-83
2023/05/15 03:04:24;;;;;;;26.17;19.85;;;13.70;99.90;;;;;;5028910;28;20548;-83
2023/05/15 03:06:49;;;;;;;24.85;20.45;;;13.60;99.90;;;;;;5028691;28;20078;-83
2023/05/15 03:09:15;;;;;;;23.70;20.90;;;13.70;99.90;;;;;;5028309;28;20457;-83
2023/05/15 03:11:41;;;;;;;22.67;20.35;;;13.60;99.90;;;;;;5028990;28;20029;-84
2023/05/15 03:14:06;;;;;;;25.23;20.75;;;13.60;99.90;;;;;;5029157;28;20029;-84
2023/05/15 03:16:32;;;;;;;26.67;22.15;;;13.50;99.90;;;;;;5028005;28;20086;-83
2023/05/15 03:18:58;;;;;;;26.45;23.60;;;13.60;99.90;;;;;;5029144;28;20056;-84
2023/05/15 03:21:23;;;;;;;25.85;21.75;;;13.60;99.90;;;;;;5028889;28;20026;-84
2023/05/15 03:23:49;;;;;;;25.88;22.30;;;13.60;99.90;;;;;;5028048;28;20029;-84
2023/05/15 03:26:14;;;;;;;23.95;21.00;;;13.60;99.90;;;;;;5032481;28;20070;-84
2023/05/15 03:28:40;;;;;;;26.58;22.27;;;13.50;99.90;;;;;;5031793;28;20033;-83
2023/05/15 03:31:07;;;;;;;25.85;23.08;;;13.50;99.90;;;;;;5031555;28;20018;-83
2023/05/15 03:33:33;;;;;;;34.33;23.42;;;13.60;99.90;;;;;;5032038;28;20107;-84
2023/05/15 03:35:59;;;;;;;27.67;23.98;;;13.60;99.90;;;;;;5031620;28;20028;-83
2023/05/15 03:38:24;;;;;;;33.85;26.40;;;13.50;99.90;;;;;;5032255;28;20372;-84
2023/05/15 03:40:50;;;;;;;32.22;25.50;;;13.60;99.90;;;;;;5031562;28;20022;-84
2023/05/15 03:43:16;;;;;;;33.63;25.77;;;13.60;99.90;;;;;;5031452;28;20052;-84
2023/05/15 03:45:41;;;;;;;33.67;26.75;;;13.60;99.90;;;;;;5031876;28;20422;-84
2023/05/15 03:48:07;;;;;;;32.22;26.10;;;13.60;99.90;;;;;;5032076;28;20071;-84
2023/05/15 03:50:32;;;;;;;31.00;26.83;;;13.60;99.90;;;;;;5031090;28;20465;-84
2023/05/15 03:52:58;;;;;;;34.53;28.63;;;13.50;99.90;;;;;;5031809;28;20049;-84
2023/05/15 03:55:23;;;;;;;31.98;27.45;;;13.50;99.90;;;;;;5031880;28;20110;-83
2023/05/15 03:57:49;;;;;;;35.50;28.48;;;13.50;99.90;;;;;;5030691;28;20159;-83
2023/05/15 04:00:15;;;;;;;38.17;30.10;;;13.30;99.90;;;;;;5031900;28;20022;-84
2023/05/15 04:02:41;;;;;;;36.58;30.50;;;13.40;99.90;;;;;;5031579;28;20033;-84
2023/05/15 04:05:07;;;;;;;35.35;29.23;;;13.40;99.90;;;;;;5031225;28;20026;-84
2023/05/15 04:07:34;;;;;;;36.70;30.40;;;13.30;99.90;;;;;;5031502;28;20029;-85
2023/05/15 04:10:00;;;;;;;35.75;29.15;;;13.30;99.90;;;;;;5031442;28;20026;-83
2023/05/15 04:12:31;;;;;;;37.15;30.52;;;13.30;99.90;;;;;;5030766;28;20501;-82
2023/05/15 04:15:20;;;;;;;;;;;13.40;99.90;;;;;;5032095;28;20033;-82
2023/05/15 04:17:47;;;;;;;35.53;29.05;;;13.30;99.90;;;;;;5023184;28;19909;-82
2023/05/15 04:20:14;;;;;;;37.22;29.40;;;13.30;99.90;;;;;;5030680;28;20026;-84
2023/05/15 04:22:40;;;;;;;38.72;27.63;;;13.30;99.90;;;;;;5030999;28;20112;-84
2023/05/15 04:25:08;;;;;;;39.33;28.95;;;13.20;99.90;;;;;;5031537;28;20025;-84
2023/05/15 04:27:34;;;;;;;40.65;27.52;;;13.10;99.90;;;;;;5030843;28;20052;-84
2023/05/15 04:30:00;;;;;;;37.70;28.08;;;13.20;99.90;;;;;;5031473;28;20062;-84
2023/05/15 04:32:26;;;;;;;32.63;27.98;;;13.20;99.90;;;;;;5030612;28;20433;-84
2023/05/15 04:34:52;;;;;;;36.53;29.48;;;13.20;99.90;;;;;;5030663;28;20032;-84
2023/05/15 04:37:17;;;;;;;34.70;27.50;;;13.20;99.90;;;;;;5030003;28;20030;-84
2023/05/15 04:39:43;;;;;;;33.13;27.40;;;13.20;99.90;;;;;;5030228;28;20480;-84
2023/05/15 04:42:09;;;;;;;34.42;26.63;;;13.20;99.90;;;;;;5030994;28;20527;-84
2023/05/15 04:44:35;;;;;;;33.42;27.55;;;13.20;99.90;;;;;;5030617;28;20049;-84
2023/05/15 04:47:00;;;;;;;31.60;27.77;;;13.20;99.90;;;;;;5030544;28;20045;-84
2023/05/15 04:49:26;;;;;;;32.55;25.98;;;13.30;99.90;;;;;;5031401;28;20021;-84
2023/05/15 04:51:51;;;;;;;32.08;28.08;;;13.30;99.90;;;;;;5030522;28;20065;-84
2023/05/15 04:54:17;;;;;;;31.35;27.65;;;13.40;99.90;;;;;;5030166;28;20030;-84
2023/05/15 04:56:44;;;;;;;37.05;26.55;;;13.40;99.90;;;;;;5031751;28;20022;-84
2023/05/15 04:59:09;;;;;;;32.97;26.77;;;13.30;99.90;;;;;;5030991;28;20097;-84
2023/05/15 05:01:36;;;;;;;29.25;25.02;;;13.40;99.90;;;;;;5029849;28;20473;-84
2023/05/15 05:04:01;;;;;;;29.45;23.75;;;13.30;99.90;;;;;;5030896;28;20033;-85
2023/05/15 05:06:27;;;;;;;29.13;25.25;;;13.30;99.90;;;;;;5030639;28;20086;-84
2023/05/15 05:08:52;;;;;;;33.42;26.48;;;13.30;99.90;;;;;;5029501;28;20396;-84
2023/05/15 05:11:18;;;;;;;34.10;26.05;;;13.30;99.90;;;;;;5030738;28;20104;-85
2023/05/15 05:13:43;;;;;;;33.78;25.45;;;13.30;99.90;;;;;;5030325;28;20017;-84
2023/05/15 05:16:09;;;;;;;29.00;25.58;;;13.40;99.90;;;;;;5029880;28;20026;-84
2023/05/15 05:18:35;;;;;;;30.73;24.73;;;13.20;99.90;;;;;;5030122;28;20048;-84
2023/05/15 05:21:01;;;;;;;25.63;22.85;;;13.30;99.90;;;;;;5030678;28;20490;-83
2023/05/15 05:23:27;;;;;;;28.40;24.70;;;13.30;99.90;;;;;;5029878;28;20029;-84
2023/05/15 05:25:52;;;;;;;24.67;20.95;;;13.10;99.90;;;;;;5030339;28;20077;-84
2023/05/15 05:28:18;;;;;;;22.17;19.85;;;13.00;99.90;;;;;;5030676;28;20454;-84
2023/05/15 05:30:47;;;;;;;21.60;18.80;;;13.00;99.90;;;;;;5029371;28;20017;-84
2023/05/15 05:33:13;;;;;;;24.20;19.63;;;12.90;99.90;;;;;;5030485;28;20037;-84
2023/05/15 05:35:39;;;;;;;23.77;20.33;;;13.00;99.90;;;;;;5029471;28;20363;-84
2023/05/15 05:38:04;;;;;;;29.00;23.67;;;13.00;99.90;;;;;;5030506;28;20484;-84
2023/05/15 05:40:30;;;;;;;27.27;24.38;;;13.10;99.90;;;;;;5030165;28;20388;-84
2023/05/15 05:43:00;;;;;;;28.20;24.65;;;13.10;99.90;;;;;;5029188;28;20117;-84
2023/05/15 05:45:25;;;;;;;26.88;22.88;;;13.10;99.90;;;;;;5030337;28;20045;-84
2023/05/15 05:47:51;;;;;;;27.17;22.83;;;13.10;99.90;;;;;;5029166;28;20522;-84
2023/05/15 05:50:16;;;;;;;27.77;23.77;;;13.10;99.90;;;;;;5029222;28;20022;-83
2023/05/15 05:52:42;;;;;;;30.00;24.27;;;13.20;99.90;;;;;;5029927;28;20026;-83
2023/05/15 05:55:08;;;;;;;25.35;22.63;;;13.30;99.90;;;;;;5029780;28;20018;-84
2023/05/15 05:57:34;;;;;;;26.52;23.67;;;13.40;99.90;;;;;;5028730;28;20491;-84
2023/05/15 06:00:00;;;;;;;37.00;23.40;;;13.40;99.90;;;;;;5030076;28;20235;-84
2023/05/15 06:02:25;;;;;;;29.67;23.75;;;13.50;99.90;;;;;;5029679;28;20029;-84
2023/05/15 06:04:51;;;;;;;26.60;23.27;;;13.50;99.90;;;;;;5028807;28;20061;-84
2023/05/15 06:07:17;;;;;;;31.63;25.35;;;13.60;99.90;;;;;;5029807;28;20055;-84
2023/05/15 06:09:44;;;;;;;27.42;23.80;;;13.40;99.90;;;;;;5029570;28;20029;-84
2023/05/15 06:12:10;;;;;;;28.17;23.98;;;13.40;99.90;;;;;;5029244;28;20037;-84
2023/05/15 06:14:35;;;;;;;25.10;22.48;;;13.40;99.90;;;;;;5029287;28;20422;-84
2023/05/15 06:17:01;;;;;;;26.88;23.98;;;13.50;99.90;;;;;;5029790;28;20029;-83
2023/05/15 06:19:27;;;;;;;25.88;22.88;;;13.60;99.90;;;;;;5028739;28;20029;-84
2023/05/15 06:21:53;;;;;;;27.00;22.20;;;13.60;99.90;;;;;;5029527;28;20081;-84
2023/05/15 06:24:18;;;;;;;34.70;25.45;;;13.70;99.90;;;;;;5029769;28;20021;-84
2023/05/15 06:26:44;;;;;;;27.58;24.38;;;13.60;99.90;;;;;;5028419;28;20060;-84
2023/05/15 06:29:10;;;;;;;27.85;23.38;;;13.70;99.90;;;;;;5029597;28;20122;-83
2023/05/15 06:31:35;;;;;;;24.98;22.15;;;13.70;99.90;;;;;;5028936;28;20081;-84
2023/05/15 06:34:01;;;;;;;27.45;21.30;;;14.50;99.90;;;;;;5028452;28;20087;-83
2023/05/15 06:36:27;;;;;;;27.90;22.48;;;13.80;99.90;;;;;;5029268;28;20053;-84
2023/05/15 06:38:52;;;;;;;29.55;21.70;;;13.80;99.90;;;;;;5028364;28;20055;-83
2023/05/15 06:41:18;;;;;;;29.30;22.10;;;13.80;99.90;;;;;;5029343;28;20049;-84
2023/05/15 06:43:44;;;;;;;28.50;22.45;;;13.80;99.90;;;;;;5028774;28;20045;-84
2023/05/15 06:46:09;;;;;;;25.13;21.73;;;13.80;99.90;;;;;;5028124;28;20034;-84
2023/05/15 06:48:35;;;;;;;25.63;21.08;;;13.80;99.90;;;;;;5029042;28;20045;-84
2023/05/15 06:51:00;;;;;;;25.13;22.42;;;13.90;99.90;;;;;;5029336;28;20529;-83
2023/05/15 06:53:28;;;;;;;28.25;22.23;;;13.80;99.90;;;;;;5028500;28;20021;-84
2023/05/15 06:55:53;;;;;;;25.33;20.70;;;13.80;99.90;;;;;;5028752;28;20493;-84
2023/05/15 06:58:19;;;;;;;25.98;20.67;;;13.80;99.90;;;;;;5029198;28;20105;-84
2023/05/15 07:00:45;;;;;;;24.95;20.65;;;13.70;99.90;;;;;;5030796;28;20484;-84
2023/05/15 07:03:13;;;;;;;26.40;20.42;;;13.80;99.90;;;;;;5032424;28;20541;-85
2023/05/15 07:05:38;;;;;;;21.90;18.90;;;13.80;99.90;;;;;;5032585;28;20026;-85
2023/05/15 07:08:04;;;;;;;26.20;19.17;;;13.80;99.90;;;;;;5031640;28;20542;-84
2023/05/15 07:10:29;;;;;;;20.73;17.42;;;13.80;99.90;;;;;;5032563;28;20545;-85
2023/05/15 07:12:55;;;;;;;23.55;18.95;;;13.90;99.90;;;;;;5031945;28;20053;-84
2023/05/15 07:15:20;;;;;;;21.92;19.08;;;14.00;99.90;;;;;;5031860;28;20021;-84
2023/05/15 07:17:46;;;;;;;24.38;19.20;;;14.00;99.90;;;;;;5031999;28;20405;-85
2023/05/15 07:20:11;;;;;;;24.05;20.63;;;14.00;99.90;;;;;;5032242;28;20483;-84
2023/05/15 07:22:38;;;;;;;26.05;20.17;;;14.10;99.90;;;;;;5031236;28;20036;-84
2023/05/15 07:25:03;;;;;;;24.05;20.20;;;14.10;99.90;;;;;;5032258;28;20033;-85
2023/05/15 07:27:29;;;;;;;26.75;22.65;;;14.10;99.90;;;;;;5032814;28;20041;-84
2023/05/15 07:29:55;;;;;;;25.55;20.58;;;14.10;99.90;;;;;;5031228;28;20038;-85
2023/05/15 07:32:20;;;;;;;27.48;22.42;;;14.20;99.90;;;;;;5032553;28;20108;-84
2023/05/15 07:34:46;;;;;;;23.92;21.40;;;14.20;99.90;;;;;;5031978;28;20017;-85
2023/05/15 07:37:11;;;;;;;23.63;20.75;;;14.20;99.90;;;;;;5031447;28;20465;-85
2023/05/15 07:39:37;;;;;;;28.92;22.70;;;14.20;99.90;;;;;;5031991;28;20465;-84
2023/05/15 07:42:03;;;;;;;26.15;20.90;;;14.20;99.90;;;;;;5032078;28;20354;-84
2023/05/15 07:44:28;;;;;;;29.85;23.23;;;14.30;99.90;;;;;;5031177;28;20484;-85
2023/05/15 07:46:55;;;;;;;27.27;23.58;;;14.20;99.90;;;;;;5031945;28;20032;-85
2023/05/15 07:49:20;;;;;;;27.63;22.50;;;14.20;99.90;;;;;;5031378;28;20025;-85
2023/05/15 07:51:46;;;;;;;26.23;23.42;;;14.30;99.90;;;;;;5031578;28;20059;-84
2023/05/15 07:54:11;;;;;;;29.35;23.15;;;14.20;99.90;;;;;;5031826;28;20066;-85
2023/05/15 07:56:38;;;;;;;28.48;25.15;;;14.20;99.90;;;;;;5030992;28;20385;-84
2023/05/15 07:59:03;;;;;;;29.90;24.30;;;14.30;99.90;;;;;;5032062;28;20029;-85
2023/05/15 08:01:29;;;;;;;29.83;23.92;;;14.30;99.90;;;;;;5031962;28;20025;-85
2023/05/15 08:03:54;;;;;;;30.75;23.98;;;14.30;99.90;;;;;;5030812;28;20025;-85
2023/05/15 08:06:20;;;;;;;30.05;24.00;;;14.30;99.90;;;;;;5031783;28;20119;-84
2023/05/15 08:08:45;;;;;;;27.23;23.10;;;14.30;99.90;;;;;;5031386;28;20040;-85
2023/05/15 08:11:11;;;;;;;30.23;24.98;;;14.50;99.90;;;;;;5030626;28;20026;-85
2023/05/15 08:13:36;;;;;;;33.30;25.00;;;14.30;99.90;;;;;;5031112;28;20026;-85
2023/05/15 08:16:02;;;;;;;27.17;23.33;;;14.30;99.90;;;;;;5031602;28;20025;-84
2023/05/15 08:18:28;;;;;;;31.45;25.73;;;14.30;99.90;;;;;;5030695;28;20022;-84
2023/05/15 08:20:53;;;;;;;29.02;23.90;;;14.30;99.90;;;;;;5031010;28;20021;-83
2023/05/15 08:23:19;;;;;;;29.90;24.40;;;14.30;99.90;;;;;;5031482;28;20034;-83
2023/05/15 08:25:44;;;;;;;32.15;25.63;;;14.40;99.90;;;;;;5030434;28;20029;-83
2023/05/15 08:28:10;;;;;;;29.88;22.45;;;14.40;99.90;;;;;;5031665;28;20041;-83
2023/05/15 08:30:36;;;;;;;29.20;24.50;;;14.40;99.90;;;;;;5030837;28;20017;-84
2023/05/15 08:33:01;;;;;;;31.10;23.75;;;14.30;99.90;;;;;;5030560;28;20092;-84
2023/05/15 08:35:27;;;;;;;29.15;25.85;;;14.40;99.90;;;;;;5031209;28;20032;-83
2023/05/15 08:37:52;;;;;;;28.70;24.45;;;14.40;99.90;;;;;;5030755;28;20033;-83
2023/05/15 08:40:18;;;;;;;27.25;24.48;;;14.30;99.90;;;;;;5030294;28;20033;-84
2023/05/15 08:42:52;;;;;;;30.60;24.77;;;14.30;99.90;;;;;;5030647;28;20025;-83
2023/05/15 08:45:18;;;;;;;29.73;25.23;;;14.40;99.90;;;;;;5030901;28;20512;-84
2023/05/15 08:47:44;;;;;;;29.63;24.58;;;14.40;99.90;;;;;;5030066;28;20037;-84
2023/05/15 08:50:13;;;;;;;29.50;25.73;;;14.30;99.90;;;;;;5030646;28;20025;-84
2023/05/15 08:52:45;;;;;;;35.50;27.50;;;14.30;99.90;;;;;;5029765;28;20496;-84
2023/05/15 08:55:12;;;;;;;31.20;27.63;;;14.40;99.90;;;;;;5031180;28;20026;-83
2023/05/15 08:57:38;;;;;;;34.22;26.90;;;14.30;99.90;;;;;;5030313;28;20030;-84
2023/05/15 09:00:07;;;;;;;33.97;27.63;;;14.40;99.90;;;;;;5030124;28;20078;-84
2023/05/15 09:02:40;;;;;;;36.37;26.53;;;14.40;99.90;;;;;;5030906;28;20022;-84
2023/05/15 09:05:06;;;;;;;29.13;24.42;;;14.40;99.90;;;;;;5030901;28;20021;-84
2023/05/15 09:07:32;;;;;;;30.38;25.17;;;14.40;99.90;;;;;;5029581;28;20079;-86
2023/05/15 09:10:00;;;;;;;37.92;28.85;;;14.40;99.90;;;;;;5030854;28;20026;-85
2023/05/15 09:12:26;;;;;;;42.22;28.48;;;14.50;99.90;;;;;;5030752;28;20497;-84
2023/05/15 09:15:16;;;;;;;41.38;29.33;;;14.40;99.90;;;;;;5029291;28;20103;-83
2023/05/15 09:17:42;;;;;;;38.47;28.60;;;14.40;99.90;;;;;;5030289;28;20031;-84
2023/05/15 09:20:23;;;;;;;40.88;30.83;;;14.40;99.90;;;;;;5030300;28;20385;-84
2023/05/15 09:22:49;;;;;;;41.40;30.27;;;14.40;99.90;;;;;;5028770;28;20094;-84
2023/05/15 09:25:32;;;;;;;41.22;30.85;;;14.40;99.90;;;;;;5030575;28;20457;-83
2023/05/15 09:27:58;;;;;;;45.60;33.25;;;14.40;99.90;;;;;;5029464;28;20553;-84
2023/05/15 09:30:25;;;;;;;42.35;33.28;;;14.40;99.90;;;;;;5030777;28;20037;-85
2023/05/15 09:32:51;;;;;;;49.33;35.20;;;14.40;99.90;;;;;;5030189;28;20754;-84
2023/05/15 09:35:34;;;;;;;50.72;34.22;;;14.40;99.90;;;;;;5029730;28;20029;-84
2023/05/15 09:38:02;;;;;;;47.20;35.65;;;14.40;99.90;;;;;;5030267;28;20025;-84
2023/05/15 09:40:29;;;;;;;44.15;34.35;;;14.40;99.90;;;;;;5030272;28;20025;-84
2023/05/15 09:42:56;;;;;;;50.50;34.13;;;14.40;99.90;;;;;;5029217;28;20037;-84
2023/05/15 09:45:24;;;;;;;46.00;34.50;;;14.40;99.90;;;;;;5030012;28;20086;-84
2023/05/15 09:47:50;;;;;;;48.58;35.15;;;14.30;99.90;;;;;;5029504;28;20030;-84
2023/05/15 09:50:24;;;;;;;50.33;36.08;;;14.30;99.90;;;;;;5029358;28;20132;-84
2023/05/15 09:52:50;;;;;;;51.92;35.95;;;14.20;99.90;;;;;;5029713;28;20108;-84
2023/05/15 09:55:18;;;;;;;53.42;38.08;;;14.20;99.90;;;;;;5029656;28;20051;-84
2023/05/15 09:58:02;;;;;;;52.53;37.30;;;14.00;99.90;;;;;;5028817;28;20033;-84
2023/05/15 10:00:28;;;;;;;53.42;37.80;;;14.10;99.90;;;;;;5030111;28;20025;-84
2023/05/15 10:02:57;;;;;;;52.47;37.03;;;14.10;99.90;;;;;;5029034;28;20169;-84
2023/05/15 10:05:26;;;;;;;57.90;40.47;;;14.10;99.90;;;;;;5029823;28;20022;-84
2023/05/15 10:07:54;;;;;;;59.33;42.15;;;14.10;99.90;;;;;;5029287;28;20211;-84
2023/05/15 10:10:21;;;;;;;65.93;40.65;;;14.20;99.90;;;;;;5028815;28;20485;-84
2023/05/15 10:12:47;;;;;;;66.78;44.25;;;14.30;99.90;;;;;;5029144;28;20396;-84
2023/05/15 10:15:14;;;;;;;66.03;42.15;;;14.30;99.90;;;;;;5029246;28;20073;-84
2023/05/15 10:17:42;;;;;;;65.20;43.90;;;14.40;99.90;;;;;;5028703;28;20030;-84
2023/05/15 10:20:10;;;;;;;72.72;44.80;;;14.40;99.90;;;;;;5029324;28;20029;-84
2023/05/15 10:22:43;;;;;;;72.05;44.70;;;14.40;99.90;;;;;;5029333;28;20108;-84
2023/05/15 10:25:35;;;;;;;66.88;42.88;;;14.40;99.90;;;;;;5028788;28;20052;-84
2023/05/15 10:28:02;;;;;;;64.13;41.90;;;14.40;99.90;;;;;;5039246;28;20082;-84
2023/05/15 10:30:30;;;;;;;68.03;42.45;;;14.40;99.90;;;;;;5029573;28;20501;-84
2023/05/15 10:32:56;;;;;;;67.20;42.17;;;14.50;99.90;;;;;;5028663;28;20053;-84
2023/05/15 10:35:22;;;;;;;61.03;40.22;;;14.50;99.90;;;;;;5029214;28;20021;-84
2023/05/15 10:37:48;;;;;;;55.70;38.10;;;14.40;99.90;;;;;;5029043;28;20376;-84
2023/05/15 10:40:16;;;;;;;54.65;37.72;;;14.50;99.90;;;;;;5028796;28;20101;-84
2023/05/15 10:42:43;;;;;;;58.15;39.97;;;14.50;99.90;;;;;;5029111;28;20029;-85
2023/05/15 10:45:10;;;;;;;56.60;37.35;;;14.50;99.90;;;;;;5028575;28;20065;-84
2023/05/15 10:47:38;;;;;;;48.75;34.08;;;14.60;99.90;;;;;;5028450;28;20120;-84
2023/05/15 10:50:05;;;;;;;46.03;32.75;;;14.60;99.90;;;;;;5029026;28;20477;-84
2023/05/15 10:52:36;;;;;;;49.58;35.78;;;14.60;99.90;;;;;;5028380;28;20034;-85
2023/05/15 10:55:05;;;;;;;50.53;34.40;;;14.60;99.90;;;;;;5029336;28;20107;-84
2023/05/15 10:57:31;;;;;;;48.05;35.08;;;14.60;99.90;;;;;;5029099;28;20057;-84
2023/05/15 10:59:57;;;;;;;44.00;32.00;;;14.50;99.90;;;;;;5028328;28;20503;-84
2023/05/15 11:02:28;;;;;;;42.58;32.33;;;14.50;99.90;;;;;;5028903;28;20369;-84
2023/05/15 11:04:59;;;;;;;39.00;28.50;;;14.50;99.90;;;;;;5028658;28;20032;-84
2023/05/15 11:07:25;;;;;;;39.60;29.50;;;14.50;99.90;;;;;;5028250;28;20030;-84
2023/05/15 11:09:52;;;;;;;41.50;30.25;;;14.50;99.90;;;;;;5028593;28;20168;-84
2023/05/15 11:12:18;;;;;;;40.25;30.27;;;14.50;99.90;;;;;;5029298;28;20064;-85
2023/05/15 11:15:09;;;;;;;34.78;27.77;;;14.60;99.90;;;;;;5028210;28;20051;-84
2023/05/15 11:17:35;;;;;;;36.15;26.83;;;14.50;99.90;;;;;;5028521;28;20373;-84
2023/05/15 11:20:01;;;;;;;41.88;30.48;;;14.50;99.90;;;;;;5028885;28;20030;-84
2023/05/15 11:22:32;;;;;;;35.75;29.38;;;14.50;99.90;;;;;;5028536;28;20033;-85
2023/05/15 11:25:08;;;;;;;35.80;26.40;;;14.50;99.90;;;;;;5029038;28;20552;-83
2023/05/15 11:27:42;;;;;;;33.50;24.08;;;14.50;99.90;;;;;;5028087;28;20124;-84
2023/05/15 11:30:14;;;;;;;27.27;22.63;;;14.50;99.90;;;;;;5028702;28;20034;-84
2023/05/15 11:32:51;;;;;;;25.88;21.05;;;14.50;99.90;;;;;;5028370;28;20026;-84
2023/05/15 11:35:42;;;;;;;25.80;20.70;;;14.50;99.90;;;;;;5027774;28;20028;-85
2023/05/15 11:38:08;;;;;;;27.38;20.25;;;14.50;99.90;;;;;;5028393;28;20026;-84
2023/05/15 11:40:57;;;;;;;25.40;20.58;;;14.60;99.90;;;;;;5028306;28;20017;-84
2023/05/15 11:43:34;;;;;;;25.67;19.98;;;14.60;99.90;;;;;;5027687;28;20052;-84
2023/05/15 11:46:08;;;;;;;28.80;20.95;;;14.60;99.90;;;;;;5030285;28;20045;-84
2023/05/15 11:48:40;;;;;;;20.15;17.70;;;14.60;99.90;;;;;;5030825;28;20033;-84
2023/05/15 11:51:14;;;;;;;22.23;16.40;;;14.60;99.90;;;;;;5031978;28;20044;-84
2023/05/15 11:53:40;;;;;;;19.80;15.45;;;14.70;99.90;;;;;;5031427;28;20552;-84
2023/05/15 11:56:06;;;;;;;18.75;13.30;;;14.60;99.90;;;;;;5030872;28;20069;-84
2023/05/15 11:58:31;;;;;;;12.93;10.73;;;14.60;99.90;;;;;;5031571;28;20049;-84
2023/05/15 12:00:57;;;;;;;10.63;9.52;;;14.60;99.90;;;;;;5031595;28;20113;-84
2023/05/15 12:03:31;;;;;;;10.40;9.40;;;14.60;99.90;;;;;;5030823;28;20109;-84
2023/05/15 12:05:57;;;;;;;10.23;8.02;;;14.60;99.90;;;;;;5031365;28;20450;-84
2023/05/15 12:08:22;;;;;;;13.35;8.00;;;14.60;99.90;;;;;;5031361;28;20124;-84
2023/05/15 12:10:49;;;;;;;9.38;8.00;;;14.90;99.90;;;;;;5030582;28;20377;-84
2023/05/15 12:13:16;;;;;;;8.38;7.13;;;14.60;99.90;;;;;;5031713;28;20162;-83
2023/05/15 12:15:44;;;;;;;9.70;6.75;;;14.70;99.90;;;;;;5031331;28;20025;-84
2023/05/15 12:18:10;;;;;;;14.18;7.53;;;14.70;99.90;;;;;;5030637;28;20101;-85
2023/05/15 12:20:38;;;;;;;16.20;8.82;;;14.60;99.90;;;;;;5030813;28;20116;-84
2023/05/15 12:23:07;;;;;;;14.27;9.75;;;14.60;99.90;;;;;;5031351;28;20025;-85
2023/05/15 12:25:34;;;;;;;15.80;10.82;;;14.60;99.90;;;;;;5030430;28;20132;-85
2023/05/15 12:28:01;;;;;;;22.73;12.55;;;14.60;99.90;;;;;;5031040;28;20034;-85
2023/05/15 12:30:30;;;;;;;21.60;11.40;;;14.60;99.90;;;;;;5030905;28;20483;-85